sensor_id;sensor_type;location;lat;lon;timestamp;P1;durP1;ratioP1;P2;durP2;ratioP2
13720;SDS011;6932;51.438;5.470;2023-08-30T00:00:41;7.53;;;4.90;;
13720;SDS011;6932;51.438;5.470;2023-08-30T00:03:07;7.47;;;5.03;;
13720;SDS011;6932;51.438;5.470;2023-08-30T00:05:33;7.60;;;5.43;;
13720;SDS011;6932;51.438;5.470;2023-08-30T00:07:59;7.67;;;5.17;;
13720;SDS011;6932;51.438;5.470;2023-08-30T00:10:25;9.43;;;5.33;;
13720;SDS011;6932;51.438;5.470;2023-08-30T00:12:50;7.60;;;5.10;;
13720;SDS011;6932;51.438;5.470;2023-08-30T00:15:16;8.57;;;5.40;;
13720;SDS011;6932;51.438;5.470;2023-08-30T00:17:42;8.73;;;5.30;;
13720;SDS011;6932;51.438;5.470;2023-08-30T00:20:08;7.87;;;5.20;;
13720;SDS011;6932;51.438;5.470;2023-08-30T00:22:34;7.57;;;5.00;;
13720;SDS011;6932;51.438;5.470;2023-08-30T00:25:04;8.37;;;5.20;;
13720;SDS011;6932;51.438;5.470;2023-08-30T00:27:30;7.30;;;4.90;;
13720;SDS011;6932;51.438;5.470;2023-08-30T00:29:56;7.63;;;5.07;;
13720;SDS011;6932;51.438;5.470;2023-08-30T00:32:21;6.63;;;4.83;;
13720;SDS011;6932;51.438;5.470;2023-08-30T00:34:50;8.43;;;4.80;;
13720;SDS011;6932;51.438;5.470;2023-08-30T00:37:16;6.90;;;4.70;;
13720;SDS011;6932;51.438;5.470;2023-08-30T00:39:42;7.87;;;5.07;;
13720;SDS011;6932;51.438;5.470;2023-08-30T00:42:08;8.87;;;5.00;;
13720;SDS011;6932;51.438;5.470;2023-08-30T00:44:34;7.27;;;4.93;;
13720;SDS011;6932;51.438;5.470;2023-08-30T00:47:03;7.97;;;5.07;;
13720;SDS011;6932;51.438;5.470;2023-08-30T00:49:32;7.17;;;5.00;;
13720;SDS011;6932;51.438;5.470;2023-08-30T00:51:59;7.80;;;4.77;;
13720;SDS011;6932;51.438;5.470;2023-08-30T00:54:29;7.83;;;5.03;;
13720;SDS011;6932;51.438;5.470;2023-08-30T00:56:55;6.23;;;4.63;;
13720;SDS011;6932;51.438;5.470;2023-08-30T00:59:23;6.73;;;4.70;;
13720;SDS011;6932;51.438;5.470;2023-08-30T01:01:49;7.77;;;4.70;;
13720;SDS011;6932;51.438;5.470;2023-08-30T01:04:16;7.97;;;4.90;;
13720;SDS011;6932;51.438;5.470;2023-08-30T01:06:43;8.03;;;5.03;;
13720;SDS011;6932;51.438;5.470;2023-08-30T01:09:08;8.67;;;5.10;;
13720;SDS011;6932;51.438;5.470;2023-08-30T01:14:26;6.83;;;5.10;;
13720;SDS011;6932;51.438;5.470;2023-08-30T01:16:59;8.33;;;5.40;;
13720;SDS011;6932;51.438;5.470;2023-08-30T01:27:59;9.13;;;5.10;;
13720;SDS011;6932;51.438;5.470;2023-08-30T01:30:31;8.43;;;5.57;;
13720;SDS011;6932;51.438;5.470;2023-08-30T01:33:02;8.73;;;5.40;;
13720;SDS011;6932;51.438;5.470;2023-08-30T01:35:30;7.33;;;5.50;;
13720;SDS011;6932;51.438;5.470;2023-08-30T01:38:01;9.20;;;6.00;;
13720;SDS011;6932;51.438;5.470;2023-08-30T01:40:33;9.60;;;5.83;;
13720;SDS011;6932;51.438;5.470;2023-08-30T01:43:04;9.33;;;6.00;;
13720;SDS011;6932;51.438;5.470;2023-08-30T01:45:33;9.50;;;6.40;;
13720;SDS011;6932;51.438;5.470;2023-08-30T01:48:01;9.93;;;6.23;;
13720;SDS011;6932;51.438;5.470;2023-08-30T01:50:30;10.00;;;6.07;;
13720;SDS011;6932;51.438;5.470;2023-08-30T01:52:57;10.47;;;7.00;;
13720;SDS011;6932;51.438;5.470;2023-08-30T01:55:25;10.77;;;6.47;;
13720;SDS011;6932;51.438;5.470;2023-08-30T01:57:54;10.23;;;6.50;;
13720;SDS011;6932;51.438;5.470;2023-08-30T02:00:20;10.00;;;6.37;;
13720;SDS011;6932;51.438;5.470;2023-08-30T02:02:46;9.77;;;6.60;;
13720;SDS011;6932;51.438;5.470;2023-08-30T02:05:13;9.77;;;6.27;;
13720;SDS011;6932;51.438;5.470;2023-08-30T02:07:54;8.80;;;6.20;;
13720;SDS011;6932;51.438;5.470;2023-08-30T02:10:31;8.73;;;5.93;;
13720;SDS011;6932;51.438;5.470;2023-08-30T02:13:05;8.43;;;5.77;;
13720;SDS011;6932;51.438;5.470;2023-08-30T02:15:33;9.13;;;6.30;;
13720;SDS011;6932;51.438;5.470;2023-08-30T02:18:03;11.03;;;6.30;;
13720;SDS011;6932;51.438;5.470;2023-08-30T02:20:31;9.80;;;6.37;;
13720;SDS011;6932;51.438;5.470;2023-08-30T02:23:00;9.00;;;6.20;;
13720;SDS011;6932;51.438;5.470;2023-08-30T02:25:26;10.43;;;6.27;;
13720;SDS011;6932;51.438;5.470;2023-08-30T02:27:52;10.13;;;6.57;;
13720;SDS011;6932;51.438;5.470;2023-08-30T02:30:17;13.40;;;6.00;;
13720;SDS011;6932;51.438;5.470;2023-08-30T02:32:44;8.50;;;5.70;;
13720;SDS011;6932;51.438;5.470;2023-08-30T02:35:09;9.00;;;6.20;;
13720;SDS011;6932;51.438;5.470;2023-08-30T02:37:35;9.53;;;6.27;;
13720;SDS011;6932;51.438;5.470;2023-08-30T02:40:02;9.33;;;6.53;;
13720;SDS011;6932;51.438;5.470;2023-08-30T02:42:28;8.60;;;6.23;;
13720;SDS011;6932;51.438;5.470;2023-08-30T02:44:54;9.90;;;6.47;;
13720;SDS011;6932;51.438;5.470;2023-08-30T02:47:20;8.97;;;5.93;;
13720;SDS011;6932;51.438;5.470;2023-08-30T02:49:45;8.03;;;5.70;;
13720;SDS011;6932;51.438;5.470;2023-08-30T02:52:11;10.77;;;6.00;;
13720;SDS011;6932;51.438;5.470;2023-08-30T02:54:37;8.77;;;5.60;;
13720;SDS011;6932;51.438;5.470;2023-08-30T02:57:02;9.57;;;6.30;;
13720;SDS011;6932;51.438;5.470;2023-08-30T02:59:29;9.13;;;5.90;;
13720;SDS011;6932;51.438;5.470;2023-08-30T03:01:54;9.93;;;6.33;;
13720;SDS011;6932;51.438;5.470;2023-08-30T03:04:20;9.23;;;6.30;;
13720;SDS011;6932;51.438;5.470;2023-08-30T03:06:46;8.00;;;5.87;;
13720;SDS011;6932;51.438;5.470;2023-08-30T03:09:11;9.27;;;6.30;;
13720;SDS011;6932;51.438;5.470;2023-08-30T03:11:37;9.13;;;6.40;;
13720;SDS011;6932;51.438;5.470;2023-08-30T03:14:03;9.67;;;6.70;;
13720;SDS011;6932;51.438;5.470;2023-08-30T03:16:29;10.23;;;6.13;;
13720;SDS011;6932;51.438;5.470;2023-08-30T03:18:54;9.23;;;6.20;;
13720;SDS011;6932;51.438;5.470;2023-08-30T03:21:20;9.30;;;6.50;;
13720;SDS011;6932;51.438;5.470;2023-08-30T03:23:46;10.83;;;6.57;;
13720;SDS011;6932;51.438;5.470;2023-08-30T03:26:12;10.77;;;6.60;;
13720;SDS011;6932;51.438;5.470;2023-08-30T03:28:42;10.20;;;7.03;;
13720;SDS011;6932;51.438;5.470;2023-08-30T03:33:45;10.83;;;7.43;;
13720;SDS011;6932;51.438;5.470;2023-08-30T03:36:14;11.23;;;6.93;;
13720;SDS011;6932;51.438;5.470;2023-08-30T03:38:41;11.27;;;7.40;;
13720;SDS011;6932;51.438;5.470;2023-08-30T03:41:09;11.23;;;7.17;;
13720;SDS011;6932;51.438;5.470;2023-08-30T03:43:36;10.83;;;7.50;;
13720;SDS011;6932;51.438;5.470;2023-08-30T03:46:02;10.90;;;7.67;;
13720;SDS011;6932;51.438;5.470;2023-08-30T03:48:28;10.67;;;7.27;;
13720;SDS011;6932;51.438;5.470;2023-08-30T03:50:55;10.50;;;7.47;;
13720;SDS011;6932;51.438;5.470;2023-08-30T03:53:22;11.37;;;7.80;;
13720;SDS011;6932;51.438;5.470;2023-08-30T03:55:48;11.37;;;8.23;;
13720;SDS011;6932;51.438;5.470;2023-08-30T03:58:14;10.27;;;7.80;;
13720;SDS011;6932;51.438;5.470;2023-08-30T04:00:40;12.10;;;8.13;;
13720;SDS011;6932;51.438;5.470;2023-08-30T04:03:07;11.10;;;7.93;;
13720;SDS011;6932;51.438;5.470;2023-08-30T04:05:35;10.83;;;8.00;;
13720;SDS011;6932;51.438;5.470;2023-08-30T04:08:02;11.57;;;7.70;;
13720;SDS011;6932;51.438;5.470;2023-08-30T04:10:29;11.73;;;7.90;;
13720;SDS011;6932;51.438;5.470;2023-08-30T04:13:02;12.60;;;8.07;;
13720;SDS011;6932;51.438;5.470;2023-08-30T04:15:28;14.17;;;8.33;;
13720;SDS011;6932;51.438;5.470;2023-08-30T04:18:01;11.10;;;7.93;;
13720;SDS011;6932;51.438;5.470;2023-08-30T04:20:29;10.60;;;7.67;;
13720;SDS011;6932;51.438;5.470;2023-08-30T04:22:55;11.23;;;8.20;;
13720;SDS011;6932;51.438;5.470;2023-08-30T04:25:21;10.33;;;7.60;;
13720;SDS011;6932;51.438;5.470;2023-08-30T04:27:48;12.50;;;7.77;;
13720;SDS011;6932;51.438;5.470;2023-08-30T04:30:13;11.87;;;7.60;;
13720;SDS011;6932;51.438;5.470;2023-08-30T04:32:41;12.00;;;7.63;;
13720;SDS011;6932;51.438;5.470;2023-08-30T04:35:07;11.27;;;8.07;;
13720;SDS011;6932;51.438;5.470;2023-08-30T04:37:33;10.43;;;7.83;;
13720;SDS011;6932;51.438;5.470;2023-08-30T04:39:59;10.60;;;7.90;;
13720;SDS011;6932;51.438;5.470;2023-08-30T04:42:25;11.80;;;7.93;;
13720;SDS011;6932;51.438;5.470;2023-08-30T04:44:51;10.77;;;7.53;;
13720;SDS011;6932;51.438;5.470;2023-08-30T04:47:19;10.77;;;7.53;;
13720;SDS011;6932;51.438;5.470;2023-08-30T04:49:49;10.70;;;7.90;;
13720;SDS011;6932;51.438;5.470;2023-08-30T04:52:18;10.80;;;8.13;;
13720;SDS011;6932;51.438;5.470;2023-08-30T04:54:44;11.00;;;8.20;;
13720;SDS011;6932;51.438;5.470;2023-08-30T04:57:11;11.50;;;8.10;;
13720;SDS011;6932;51.438;5.470;2023-08-30T04:59:41;11.47;;;8.07;;
13720;SDS011;6932;51.438;5.470;2023-08-30T05:02:08;10.83;;;7.87;;
13720;SDS011;6932;51.438;5.470;2023-08-30T05:04:34;10.70;;;8.00;;
13720;SDS011;6932;51.438;5.470;2023-08-30T05:07:00;11.07;;;8.40;;
13720;SDS011;6932;51.438;5.470;2023-08-30T05:09:26;11.80;;;8.57;;
13720;SDS011;6932;51.438;5.470;2023-08-30T05:11:52;10.70;;;8.07;;
13720;SDS011;6932;51.438;5.470;2023-08-30T05:14:19;11.60;;;8.30;;
13720;SDS011;6932;51.438;5.470;2023-08-30T05:16:45;11.67;;;7.87;;
13720;SDS011;6932;51.438;5.470;2023-08-30T05:19:11;13.27;;;8.00;;
13720;SDS011;6932;51.438;5.470;2023-08-30T05:21:37;11.17;;;7.90;;
13720;SDS011;6932;51.438;5.470;2023-08-30T05:24:03;12.37;;;8.00;;
13720;SDS011;6932;51.438;5.470;2023-08-30T05:26:32;11.50;;;7.67;;
13720;SDS011;6932;51.438;5.470;2023-08-30T05:28:58;10.20;;;7.50;;
13720;SDS011;6932;51.438;5.470;2023-08-30T05:31:24;12.60;;;7.70;;
13720;SDS011;6932;51.438;5.470;2023-08-30T05:33:50;11.03;;;7.50;;
13720;SDS011;6932;51.438;5.470;2023-08-30T05:36:16;11.33;;;7.40;;
13720;SDS011;6932;51.438;5.470;2023-08-30T05:38:42;10.50;;;7.13;;
13720;SDS011;6932;51.438;5.470;2023-08-30T05:41:08;10.20;;;7.40;;
13720;SDS011;6932;51.438;5.470;2023-08-30T05:43:34;10.30;;;7.50;;
13720;SDS011;6932;51.438;5.470;2023-08-30T05:46:00;11.40;;;7.27;;
13720;SDS011;6932;51.438;5.470;2023-08-30T05:48:32;12.37;;;7.23;;
13720;SDS011;6932;51.438;5.470;2023-08-30T05:50:58;11.63;;;7.80;;
13720;SDS011;6932;51.438;5.470;2023-08-30T05:53:24;11.07;;;7.57;;
13720;SDS011;6932;51.438;5.470;2023-08-30T05:55:49;10.80;;;7.57;;
13720;SDS011;6932;51.438;5.470;2023-08-30T05:58:15;11.37;;;7.73;;
13720;SDS011;6932;51.438;5.470;2023-08-30T06:00:43;10.10;;;7.27;;
13720;SDS011;6932;51.438;5.470;2023-08-30T06:03:09;10.93;;;7.40;;
13720;SDS011;6932;51.438;5.470;2023-08-30T06:05:35;10.70;;;7.23;;
13720;SDS011;6932;51.438;5.470;2023-08-30T06:08:01;12.00;;;7.87;;
13720;SDS011;6932;51.438;5.470;2023-08-30T06:10:27;11.87;;;7.40;;
13720;SDS011;6932;51.438;5.470;2023-08-30T06:12:53;12.03;;;7.60;;
13720;SDS011;6932;51.438;5.470;2023-08-30T06:15:19;10.37;;;7.60;;
13720;SDS011;6932;51.438;5.470;2023-08-30T06:17:44;12.40;;;7.83;;
13720;SDS011;6932;51.438;5.470;2023-08-30T06:20:11;12.50;;;7.93;;
13720;SDS011;6932;51.438;5.470;2023-08-30T06:22:41;12.30;;;7.97;;
13720;SDS011;6932;51.438;5.470;2023-08-30T06:25:08;11.43;;;7.70;;
13720;SDS011;6932;51.438;5.470;2023-08-30T06:27:40;10.00;;;7.40;;
13720;SDS011;6932;51.438;5.470;2023-08-30T06:30:10;11.57;;;7.40;;
13720;SDS011;6932;51.438;5.470;2023-08-30T06:32:37;10.33;;;7.23;;
13720;SDS011;6932;51.438;5.470;2023-08-30T06:35:02;10.53;;;7.37;;
13720;SDS011;6932;51.438;5.470;2023-08-30T06:37:29;13.67;;;7.87;;
13720;SDS011;6932;51.438;5.470;2023-08-30T06:39:55;11.43;;;8.03;;
13720;SDS011;6932;51.438;5.470;2023-08-30T06:42:20;10.43;;;6.93;;
13720;SDS011;6932;51.438;5.470;2023-08-30T06:44:46;11.83;;;8.00;;
13720;SDS011;6932;51.438;5.470;2023-08-30T06:47:12;12.53;;;7.60;;
13720;SDS011;6932;51.438;5.470;2023-08-30T06:49:37;10.90;;;7.17;;
13720;SDS011;6932;51.438;5.470;2023-08-30T06:52:03;10.23;;;7.20;;
13720;SDS011;6932;51.438;5.470;2023-08-30T06:54:33;10.00;;;6.90;;
13720;SDS011;6932;51.438;5.470;2023-08-30T06:57:00;10.40;;;7.50;;
13720;SDS011;6932;51.438;5.470;2023-08-30T06:59:26;10.97;;;7.10;;
13720;SDS011;6932;51.438;5.470;2023-08-30T07:01:53;10.80;;;7.27;;
13720;SDS011;6932;51.438;5.470;2023-08-30T07:04:19;9.63;;;6.77;;
13720;SDS011;6932;51.438;5.470;2023-08-30T07:06:45;11.33;;;7.33;;
13720;SDS011;6932;51.438;5.470;2023-08-30T07:09:11;11.77;;;7.60;;
13720;SDS011;6932;51.438;5.470;2023-08-30T07:11:42;9.77;;;6.67;;
13720;SDS011;6932;51.438;5.470;2023-08-30T07:14:12;9.33;;;6.93;;
13720;SDS011;6932;51.438;5.470;2023-08-30T07:16:39;10.10;;;6.53;;
13720;SDS011;6932;51.438;5.470;2023-08-30T07:19:06;10.00;;;6.53;;
13720;SDS011;6932;51.438;5.470;2023-08-30T07:21:31;9.93;;;6.27;;
13720;SDS011;6932;51.438;5.470;2023-08-30T07:23:59;10.07;;;6.20;;
13720;SDS011;6932;51.438;5.470;2023-08-30T07:26:25;8.57;;;5.67;;
13720;SDS011;6932;51.438;5.470;2023-08-30T07:28:51;8.73;;;5.50;;
13720;SDS011;6932;51.438;5.470;2023-08-30T07:31:16;9.13;;;5.43;;
13720;SDS011;6932;51.438;5.470;2023-08-30T07:33:43;8.73;;;5.10;;
13720;SDS011;6932;51.438;5.470;2023-08-30T07:36:10;7.10;;;5.23;;
13720;SDS011;6932;51.438;5.470;2023-08-30T07:38:36;7.00;;;5.00;;
13720;SDS011;6932;51.438;5.470;2023-08-30T07:41:02;6.63;;;4.70;;
13720;SDS011;6932;51.438;5.470;2023-08-30T07:43:28;6.60;;;4.47;;
13720;SDS011;6932;51.438;5.470;2023-08-30T07:45:54;5.87;;;4.00;;
13720;SDS011;6932;51.438;5.470;2023-08-30T07:48:20;6.47;;;4.27;;
13720;SDS011;6932;51.438;5.470;2023-08-30T07:50:45;5.83;;;4.03;;
13720;SDS011;6932;51.438;5.470;2023-08-30T07:53:11;6.23;;;3.80;;
13720;SDS011;6932;51.438;5.470;2023-08-30T07:55:37;5.60;;;3.70;;
13720;SDS011;6932;51.438;5.470;2023-08-30T07:58:03;6.27;;;4.13;;
13720;SDS011;6932;51.438;5.470;2023-08-30T08:00:29;4.13;;;3.33;;
13720;SDS011;6932;51.438;5.470;2023-08-30T08:02:55;5.30;;;3.40;;
13720;SDS011;6932;51.438;5.470;2023-08-30T08:05:21;5.63;;;3.70;;
13720;SDS011;6932;51.438;5.470;2023-08-30T08:07:51;5.67;;;3.70;;
13720;SDS011;6932;51.438;5.470;2023-08-30T08:10:18;5.37;;;3.63;;
13720;SDS011;6932;51.438;5.470;2023-08-30T08:12:45;6.40;;;3.87;;
13720;SDS011;6932;51.438;5.470;2023-08-30T08:15:11;6.17;;;3.60;;
13720;SDS011;6932;51.438;5.470;2023-08-30T08:17:36;5.23;;;3.60;;
13720;SDS011;6932;51.438;5.470;2023-08-30T08:20:03;4.60;;;3.30;;
13720;SDS011;6932;51.438;5.470;2023-08-30T08:22:31;4.43;;;3.53;;
13720;SDS011;6932;51.438;5.470;2023-08-30T08:24:57;5.40;;;3.40;;
13720;SDS011;6932;51.438;5.470;2023-08-30T08:27:26;5.13;;;3.43;;
13720;SDS011;6932;51.438;5.470;2023-08-30T08:29:52;4.20;;;3.30;;
13720;SDS011;6932;51.438;5.470;2023-08-30T08:32:18;4.33;;;3.23;;
13720;SDS011;6932;51.438;5.470;2023-08-30T08:34:43;5.07;;;3.70;;
13720;SDS011;6932;51.438;5.470;2023-08-30T08:37:09;5.50;;;3.60;;
13720;SDS011;6932;51.438;5.470;2023-08-30T08:39:35;5.20;;;3.43;;
13720;SDS011;6932;51.438;5.470;2023-08-30T08:42:01;4.93;;;3.30;;
13720;SDS011;6932;51.438;5.470;2023-08-30T08:44:31;4.63;;;3.23;;
13720;SDS011;6932;51.438;5.470;2023-08-30T08:46:59;5.17;;;3.43;;
13720;SDS011;6932;51.438;5.470;2023-08-30T08:49:26;5.07;;;3.53;;
13720;SDS011;6932;51.438;5.470;2023-08-30T08:51:54;4.60;;;3.20;;
13720;SDS011;6932;51.438;5.470;2023-08-30T08:54:20;4.43;;;3.40;;
13720;SDS011;6932;51.438;5.470;2023-08-30T08:56:46;4.93;;;3.13;;
13720;SDS011;6932;51.438;5.470;2023-08-30T08:59:13;5.13;;;3.30;;
13720;SDS011;6932;51.438;5.470;2023-08-30T09:01:39;4.77;;;3.37;;
13720;SDS011;6932;51.438;5.470;2023-08-30T09:04:05;3.80;;;2.90;;
13720;SDS011;6932;51.438;5.470;2023-08-30T09:06:33;4.33;;;3.00;;
13720;SDS011;6932;51.438;5.470;2023-08-30T09:09:00;5.00;;;2.90;;
13720;SDS011;6932;51.438;5.470;2023-08-30T09:11:29;4.70;;;2.70;;
13720;SDS011;6932;51.438;5.470;2023-08-30T09:13:55;3.47;;;2.90;;
13720;SDS011;6932;51.438;5.470;2023-08-30T09:16:20;4.17;;;2.70;;
13720;SDS011;6932;51.438;5.470;2023-08-30T09:19:07;3.70;;;2.40;;
13720;SDS011;6932;51.438;5.470;2023-08-30T09:21:34;3.37;;;2.70;;
13720;SDS011;6932;51.438;5.470;2023-08-30T09:24:00;3.17;;;2.80;;
13720;SDS011;6932;51.438;5.470;2023-08-30T09:26:31;3.03;;;2.50;;
13720;SDS011;6932;51.438;5.470;2023-08-30T09:29:06;3.40;;;2.67;;
13720;SDS011;6932;51.438;5.470;2023-08-30T09:31:36;2.90;;;2.60;;
13720;SDS011;6932;51.438;5.470;2023-08-30T09:34:04;3.50;;;2.43;;
13720;SDS011;6932;51.438;5.470;2023-08-30T09:36:42;4.03;;;2.50;;
13720;SDS011;6932;51.438;5.470;2023-08-30T09:39:11;4.33;;;2.60;;
13720;SDS011;6932;51.438;5.470;2023-08-30T09:41:43;3.63;;;2.50;;
13720;SDS011;6932;51.438;5.470;2023-08-30T09:44:11;3.17;;;2.60;;
13720;SDS011;6932;51.438;5.470;2023-08-30T09:49:14;3.43;;;2.40;;
13720;SDS011;6932;51.438;5.470;2023-08-30T09:51:43;2.80;;;2.50;;
13720;SDS011;6932;51.438;5.470;2023-08-30T09:54:16;3.20;;;2.70;;
13720;SDS011;6932;51.438;5.470;2023-08-30T09:56:44;3.47;;;2.70;;
13720;SDS011;6932;51.438;5.470;2023-08-30T09:59:12;2.90;;;2.47;;
13720;SDS011;6932;51.438;5.470;2023-08-30T10:01:40;4.13;;;2.70;;
13720;SDS011;6932;51.438;5.470;2023-08-30T10:04:08;3.10;;;2.67;;
13720;SDS011;6932;51.438;5.470;2023-08-30T10:06:38;3.17;;;2.80;;
13720;SDS011;6932;51.438;5.470;2023-08-30T10:09:05;3.90;;;2.80;;
13720;SDS011;6932;51.438;5.470;2023-08-30T10:11:34;3.43;;;2.80;;
13720;SDS011;6932;51.438;5.470;2023-08-30T10:14:04;4.20;;;2.90;;
13720;SDS011;6932;51.438;5.470;2023-08-30T10:16:35;4.20;;;3.03;;
13720;SDS011;6932;51.438;5.470;2023-08-30T10:19:16;4.60;;;3.27;;
13720;SDS011;6932;51.438;5.470;2023-08-30T10:27:19;4.27;;;3.27;;
13720;SDS011;6932;51.438;5.470;2023-08-30T10:29:48;4.77;;;3.50;;
13720;SDS011;6932;51.438;5.470;2023-08-30T10:32:19;4.47;;;3.40;;
13720;SDS011;6932;51.438;5.470;2023-08-30T10:34:47;4.53;;;3.53;;
13720;SDS011;6932;51.438;5.470;2023-08-30T10:37:15;4.93;;;3.50;;
13720;SDS011;6932;51.438;5.470;2023-08-30T10:39:42;4.70;;;3.90;;
13720;SDS011;6932;51.438;5.470;2023-08-30T10:42:14;6.07;;;3.23;;
13720;SDS011;6932;51.438;5.470;2023-08-30T10:44:51;4.00;;;3.23;;
13720;SDS011;6932;51.438;5.470;2023-08-30T10:47:29;4.50;;;3.10;;
13720;SDS011;6932;51.438;5.470;2023-08-30T10:50:12;4.63;;;3.53;;
13720;SDS011;6932;51.438;5.470;2023-08-30T10:52:38;4.30;;;3.40;;
13720;SDS011;6932;51.438;5.470;2023-08-30T10:55:08;4.30;;;3.40;;
13720;SDS011;6932;51.438;5.470;2023-08-30T10:57:37;4.40;;;3.50;;
13720;SDS011;6932;51.438;5.470;2023-08-30T11:02:43;5.40;;;3.83;;
13720;SDS011;6932;51.438;5.470;2023-08-30T11:05:23;5.30;;;3.60;;
13720;SDS011;6932;51.438;5.470;2023-08-30T11:07:51;4.93;;;3.73;;
13720;SDS011;6932;51.438;5.470;2023-08-30T11:10:17;4.73;;;3.77;;
13720;SDS011;6932;51.438;5.470;2023-08-30T11:12:45;4.90;;;3.73;;
13720;SDS011;6932;51.438;5.470;2023-08-30T11:15:12;5.10;;;3.90;;
13720;SDS011;6932;51.438;5.470;2023-08-30T11:17:39;5.23;;;3.87;;
13720;SDS011;6932;51.438;5.470;2023-08-30T11:20:06;3.90;;;3.27;;
13720;SDS011;6932;51.438;5.470;2023-08-30T11:22:39;3.60;;;3.03;;
13720;SDS011;6932;51.438;5.470;2023-08-30T11:25:07;3.93;;;3.13;;
13720;SDS011;6932;51.438;5.470;2023-08-30T11:27:35;6.27;;;3.70;;
13720;SDS011;6932;51.438;5.470;2023-08-30T11:30:02;4.60;;;3.90;;
13720;SDS011;6932;51.438;5.470;2023-08-30T11:32:34;4.80;;;3.57;;
13720;SDS011;6932;51.438;5.470;2023-08-30T11:35:04;5.73;;;3.60;;
13720;SDS011;6932;51.438;5.470;2023-08-30T11:37:31;4.37;;;3.27;;
13720;SDS011;6932;51.438;5.470;2023-08-30T11:39:58;4.77;;;3.37;;
13720;SDS011;6932;51.438;5.470;2023-08-30T11:42:26;4.30;;;3.30;;
13720;SDS011;6932;51.438;5.470;2023-08-30T11:44:52;5.67;;;4.00;;
13720;SDS011;6932;51.438;5.470;2023-08-30T11:47:25;5.30;;;3.40;;
13720;SDS011;6932;51.438;5.470;2023-08-30T11:49:52;5.03;;;3.43;;
13720;SDS011;6932;51.438;5.470;2023-08-30T11:52:20;4.53;;;3.53;;
13720;SDS011;6932;51.438;5.470;2023-08-30T11:54:48;3.83;;;3.03;;
13720;SDS011;6932;51.438;5.470;2023-08-30T11:57:16;3.93;;;2.87;;
13720;SDS011;6932;51.438;5.470;2023-08-30T11:59:42;3.60;;;2.23;;
13720;SDS011;6932;51.438;5.470;2023-08-30T12:02:08;3.63;;;1.97;;
13720;SDS011;6932;51.438;5.470;2023-08-30T12:04:39;3.03;;;2.10;;
13720;SDS011;6932;51.438;5.470;2023-08-30T12:07:22;4.60;;;2.23;;
13720;SDS011;6932;51.438;5.470;2023-08-30T12:09:49;4.23;;;2.10;;
13720;SDS011;6932;51.438;5.470;2023-08-30T12:12:14;4.23;;;2.30;;
13720;SDS011;6932;51.438;5.470;2023-08-30T12:14:40;4.20;;;2.20;;
13720;SDS011;6932;51.438;5.470;2023-08-30T12:17:08;6.47;;;2.20;;
13720;SDS011;6932;51.438;5.470;2023-08-30T12:19:36;4.10;;;2.10;;
13720;SDS011;6932;51.438;5.470;2023-08-30T12:22:04;4.37;;;2.13;;
13720;SDS011;6932;51.438;5.470;2023-08-30T12:24:42;6.13;;;2.23;;
13720;SDS011;6932;51.438;5.470;2023-08-30T12:27:12;4.63;;;2.07;;
13720;SDS011;6932;51.438;5.470;2023-08-30T12:29:39;5.20;;;2.07;;
13720;SDS011;6932;51.438;5.470;2023-08-30T12:32:05;5.20;;;2.20;;
13720;SDS011;6932;51.438;5.470;2023-08-30T12:34:32;3.03;;;1.87;;
13720;SDS011;6932;51.438;5.470;2023-08-30T12:36:58;3.43;;;1.90;;
13720;SDS011;6932;51.438;5.470;2023-08-30T12:39:25;4.60;;;2.10;;
13720;SDS011;6932;51.438;5.470;2023-08-30T12:41:50;4.10;;;2.10;;
13720;SDS011;6932;51.438;5.470;2023-08-30T12:44:16;4.87;;;1.97;;
13720;SDS011;6932;51.438;5.470;2023-08-30T12:46:42;5.00;;;1.90;;
13720;SDS011;6932;51.438;5.470;2023-08-30T12:49:07;6.10;;;2.10;;
13720;SDS011;6932;51.438;5.470;2023-08-30T12:51:33;5.00;;;2.37;;
13720;SDS011;6932;51.438;5.470;2023-08-30T12:53:59;5.47;;;1.77;;
13720;SDS011;6932;51.438;5.470;2023-08-30T12:56:24;5.80;;;2.20;;
13720;SDS011;6932;51.438;5.470;2023-08-30T12:58:51;4.80;;;2.07;;
13720;SDS011;6932;51.438;5.470;2023-08-30T13:01:17;3.27;;;1.80;;
13720;SDS011;6932;51.438;5.470;2023-08-30T13:03:43;4.17;;;1.77;;
13720;SDS011;6932;51.438;5.470;2023-08-30T13:06:09;2.30;;;1.47;;
13720;SDS011;6932;51.438;5.470;2023-08-30T13:08:35;4.13;;;1.67;;
13720;SDS011;6932;51.438;5.470;2023-08-30T13:11:00;3.57;;;1.63;;
13720;SDS011;6932;51.438;5.470;2023-08-30T13:13:26;5.57;;;1.87;;
13720;SDS011;6932;51.438;5.470;2023-08-30T13:15:52;5.37;;;2.17;;
13720;SDS011;6932;51.438;5.470;2023-08-30T13:18:17;4.20;;;1.97;;
13720;SDS011;6932;51.438;5.470;2023-08-30T13:20:43;6.00;;;2.00;;
13720;SDS011;6932;51.438;5.470;2023-08-30T13:23:10;4.13;;;2.00;;
13720;SDS011;6932;51.438;5.470;2023-08-30T13:25:39;3.97;;;1.83;;
13720;SDS011;6932;51.438;5.470;2023-08-30T13:28:06;3.23;;;1.60;;
13720;SDS011;6932;51.438;5.470;2023-08-30T13:30:32;4.80;;;1.70;;
13720;SDS011;6932;51.438;5.470;2023-08-30T13:32:58;3.63;;;1.80;;
13720;SDS011;6932;51.438;5.470;2023-08-30T13:35:24;5.83;;;2.03;;
13720;SDS011;6932;51.438;5.470;2023-08-30T13:37:50;5.53;;;1.87;;
13720;SDS011;6932;51.438;5.470;2023-08-30T13:40:15;6.43;;;1.80;;
13720;SDS011;6932;51.438;5.470;2023-08-30T13:42:42;3.97;;;1.77;;
13720;SDS011;6932;51.438;5.470;2023-08-30T13:45:08;3.43;;;1.60;;
13720;SDS011;6932;51.438;5.470;2023-08-30T13:47:38;5.83;;;1.90;;
13720;SDS011;6932;51.438;5.470;2023-08-30T13:50:04;4.27;;;1.60;;
13720;SDS011;6932;51.438;5.470;2023-08-30T13:52:30;3.17;;;1.50;;
13720;SDS011;6932;51.438;5.470;2023-08-30T13:54:58;4.77;;;1.87;;
13720;SDS011;6932;51.438;5.470;2023-08-30T13:57:23;5.93;;;1.73;;
13720;SDS011;6932;51.438;5.470;2023-08-30T13:59:49;4.40;;;1.83;;
13720;SDS011;6932;51.438;5.470;2023-08-30T14:02:15;5.60;;;1.67;;
13720;SDS011;6932;51.438;5.470;2023-08-30T14:04:41;2.93;;;1.50;;
13720;SDS011;6932;51.438;5.470;2023-08-30T14:07:06;2.53;;;1.40;;
13720;SDS011;6932;51.438;5.470;2023-08-30T14:09:32;3.43;;;1.57;;
13720;SDS011;6932;51.438;5.470;2023-08-30T14:11:58;3.27;;;1.50;;
13720;SDS011;6932;51.438;5.470;2023-08-30T14:14:24;4.90;;;1.57;;
13720;SDS011;6932;51.438;5.470;2023-08-30T14:16:49;2.97;;;1.50;;
13720;SDS011;6932;51.438;5.470;2023-08-30T14:19:15;2.87;;;1.27;;
13720;SDS011;6932;51.438;5.470;2023-08-30T14:21:41;3.23;;;1.33;;
13720;SDS011;6932;51.438;5.470;2023-08-30T14:24:07;4.43;;;1.47;;
13720;SDS011;6932;51.438;5.470;2023-08-30T14:26:33;3.00;;;1.17;;
13720;SDS011;6932;51.438;5.470;2023-08-30T14:28:59;3.13;;;1.20;;
13720;SDS011;6932;51.438;5.470;2023-08-30T14:31:25;4.17;;;1.60;;
13720;SDS011;6932;51.438;5.470;2023-08-30T14:33:53;3.50;;;1.30;;
13720;SDS011;6932;51.438;5.470;2023-08-30T14:36:22;5.27;;;1.63;;
13720;SDS011;6932;51.438;5.470;2023-08-30T14:38:48;3.47;;;1.50;;
13720;SDS011;6932;51.438;5.470;2023-08-30T14:41:13;5.07;;;1.40;;
13720;SDS011;6932;51.438;5.470;2023-08-30T14:43:41;3.60;;;1.40;;
13720;SDS011;6932;51.438;5.470;2023-08-30T14:46:07;3.27;;;1.30;;
13720;SDS011;6932;51.438;5.470;2023-08-30T14:48:33;3.90;;;1.50;;
13720;SDS011;6932;51.438;5.470;2023-08-30T14:50:59;3.67;;;1.30;;
13720;SDS011;6932;51.438;5.470;2023-08-30T14:53:26;2.33;;;1.43;;
13720;SDS011;6932;51.438;5.470;2023-08-30T14:55:52;4.87;;;1.40;;
13720;SDS011;6932;51.438;5.470;2023-08-30T14:58:20;2.53;;;1.10;;
13720;SDS011;6932;51.438;5.470;2023-08-30T15:00:49;2.30;;;1.30;;
13720;SDS011;6932;51.438;5.470;2023-08-30T15:03:15;3.47;;;1.30;;
13720;SDS011;6932;51.438;5.470;2023-08-30T15:05:41;2.90;;;1.00;;
13720;SDS011;6932;51.438;5.470;2023-08-30T15:08:07;2.10;;;1.07;;
13720;SDS011;6932;51.438;5.470;2023-08-30T15:10:33;2.80;;;1.23;;
13720;SDS011;6932;51.438;5.470;2023-08-30T15:12:58;4.17;;;1.40;;
13720;SDS011;6932;51.438;5.470;2023-08-30T15:15:24;1.77;;;1.30;;
13720;SDS011;6932;51.438;5.470;2023-08-30T15:17:50;2.03;;;1.07;;
13720;SDS011;6932;51.438;5.470;2023-08-30T15:20:16;2.03;;;1.20;;
13720;SDS011;6932;51.438;5.470;2023-08-30T15:22:42;1.87;;;1.20;;